Center Hill Observed Data For Previous 48 Hours

Caption
Day and Hour Reservoir Elevation (behind dam)* Tailwater Elevation (below dam)* Average Hourly Discharge*
3/23/2017 1 AM CDT 631.77 479.47 0
3/23/2017 2 AM CDT 631.80 478.50 0
3/23/2017 3 AM CDT 631.84 481.94 3,420
3/23/2017 4 AM CDT 631.87 484.77 7,020
3/23/2017 5 AM CDT 631.89 485.29 7,040
3/23/2017 6 AM CDT 631.91 485.61 7,040
3/23/2017 7 AM CDT 631.93 485.93 7,080
3/23/2017 8 AM CDT 631.94 486.04 7,080
3/23/2017 9 AM CDT 631.95 486.15 7,080
3/23/2017 10 AM CDT 631.96 486.16 7,080
3/23/2017 11 AM CDT 631.97 486.27 7,100
3/23/2017 12 PM CDT 631.97 486.17 7,080
3/23/2017 1 PM CDT 631.98 486.18 7,080
3/23/2017 2 PM CDT 631.99 484.19 3,480
3/23/2017 3 PM CDT 632.00 483.50 3,460
3/23/2017 4 PM CDT 632.02 483.22 3,450
3/23/2017 5 PM CDT 632.03 483.03 3,450
3/23/2017 6 PM CDT 632.05 485.25 7,020
3/23/2017 7 PM CDT 632.06 485.66 7,040
3/23/2017 8 PM CDT 632.06 485.86 7,080
3/23/2017 9 PM CDT 632.07 485.97 7,080
3/23/2017 10 PM CDT 632.09 484.09 3,480
3/23/2017 11 PM CDT 632.11 481.21 0
3/24/2017 12 AM CDT 632.13 479.23 0
3/24/2017 1 AM CDT 632.16 478.36 0
3/24/2017 2 AM CDT 632.19 477.89 0
3/24/2017 3 AM CDT 632.22 477.52 0
3/24/2017 4 AM CDT 632.25 477.35 0
3/24/2017 5 AM CDT 632.27 480.17 3,380
3/24/2017 6 AM CDT 632.30 482.40 3,420
3/24/2017 7 AM CDT 632.33 482.53 3,420
3/24/2017 8 AM CDT 632.35 485.05 6,980
3/24/2017 9 AM CDT 632.35 485.55 7,020
3/24/2017 10 AM CDT 632.36 485.76 7,040
3/24/2017 11 AM CDT 632.36 485.86 7,040
3/24/2017 12 PM CDT 632.36 485.96 7,040
3/24/2017 1 PM CDT 632.36 485.96 7,040
3/24/2017 2 PM CDT 632.36 486.06 7,040
3/24/2017 3 PM CDT 632.36 486.06 7,040
3/24/2017 4 PM CDT 632.35 486.05 7,040
3/24/2017 5 PM CDT 632.34 486.14 7,080
3/24/2017 6 PM CDT 632.33 486.13 7,080
3/24/2017 7 PM CDT 632.32 486.12 7,080
3/24/2017 8 PM CDT 632.31 486.11 7,080
3/24/2017 9 PM CDT 632.30 486.10 7,080
3/24/2017 10 PM CDT 632.29 486.09 7,080
3/24/2017 11 PM CDT 632.29 484.09 3,480
3/25/2017 12 AM CDT 632.29 480.99 0

Elevations are in feet above sea level. Discharges are in cubic feet per second and are reported at the end of the hour.